createdAt,value
2018-04-28T00:02:05.512Z,3.67
2018-04-28T00:07:08.779Z,3.00
2018-04-28T00:12:12.517Z,2.55
2018-04-28T00:17:15.785Z,2.75
2018-04-28T00:22:37.708Z,2.60
2018-04-28T00:27:47.464Z,2.65
2018-04-28T00:32:50.718Z,2.65
2018-04-28T00:37:54.024Z,3.33
2018-04-28T00:42:57.680Z,2.87
2018-04-28T00:48:00.939Z,3.00
2018-04-28T00:53:04.642Z,3.17
2018-04-28T00:58:19.965Z,2.37
2018-04-28T01:08:51.438Z,2.95
2018-04-28T01:19:38.900Z,2.73
2018-04-28T01:24:59.095Z,2.53
2018-04-28T01:35:43.356Z,3.23
2018-04-28T01:40:46.605Z,3.00
2018-04-28T01:51:39.946Z,2.70
2018-04-28T01:56:44.870Z,2.83
2018-04-28T02:01:48.483Z,3.30
2018-04-28T02:07:07.878Z,2.83
2018-04-28T02:18:08.053Z,2.73
2018-04-28T02:28:47.462Z,2.80
2018-04-28T02:33:50.712Z,2.77
2018-04-28T02:39:09.757Z,2.83
2018-04-28T02:44:19.964Z,2.33
2018-04-28T02:49:23.889Z,2.40
2018-04-28T02:54:36.834Z,2.60
2018-04-28T02:59:56.148Z,2.43
2018-04-28T03:05:00.110Z,3.00
2018-04-28T03:10:04.266Z,3.03
2018-04-28T03:15:07.908Z,2.97
2018-04-28T03:20:14.844Z,3.23
2018-04-28T03:25:23.649Z,3.03
2018-04-28T03:30:34.748Z,3.47
2018-04-28T03:41:15.800Z,3.17
2018-04-28T03:46:22.942Z,2.77
2018-04-28T03:51:27.227Z,3.10
2018-04-28T03:56:40.460Z,2.47
2018-04-28T04:01:55.717Z,2.80
2018-04-28T04:07:03.865Z,2.70
2018-04-28T04:12:14.980Z,3.30
2018-04-28T04:22:55.538Z,3.00
2018-04-28T04:28:09.466Z,2.43
2018-04-28T04:33:16.332Z,2.90
2018-04-28T04:38:24.286Z,2.53
2018-04-28T04:49:13.405Z,3.23
2018-04-28T04:54:32.614Z,2.83
2018-04-28T05:11:32.842Z,2.57
2018-04-28T05:16:45.852Z,2.60
2018-04-28T05:28:19.126Z,2.22
2018-04-28T05:33:34.550Z,2.50
2018-04-28T05:38:58.713Z,2.10
2018-04-28T05:50:12.166Z,2.87
2018-04-28T05:55:30.352Z,2.42
2018-04-28T06:00:45.302Z,2.20
2018-04-28T06:06:13.442Z,2.30
2018-04-28T06:17:19.086Z,2.58
2018-04-28T06:22:22.313Z,2.45
2018-04-28T06:27:25.592Z,2.12
2018-04-28T06:32:28.877Z,2.17
2018-04-28T06:37:32.154Z,2.25
2018-04-28T06:42:35.800Z,2.80
2018-04-28T06:47:39.056Z,3.33
2018-04-28T06:52:42.294Z,3.17
2018-04-28T06:57:45.510Z,3.35
2018-04-28T07:02:48.826Z,3.40
2018-04-28T07:07:52.088Z,3.05
2018-04-28T07:12:57.006Z,2.72
2018-04-28T07:18:00.266Z,3.40
2018-04-28T07:23:03.541Z,3.10
2018-04-28T07:28:06.779Z,2.70
2018-04-28T07:33:10.058Z,3.58
2018-04-28T07:38:13.316Z,4.57
2018-04-28T07:43:16.571Z,4.75
2018-04-28T07:48:19.810Z,4.55
2018-04-28T07:53:23.087Z,4.40
2018-04-28T07:58:26.392Z,3.95
2018-04-28T08:03:29.627Z,3.83
2018-04-28T08:08:32.876Z,2.87
2018-04-28T08:13:36.114Z,3.62
2018-04-28T08:18:39.386Z,3.92
2018-04-28T08:23:42.655Z,3.80
2018-04-28T08:28:46.058Z,3.90
2018-04-28T08:33:49.340Z,4.30
2018-04-28T08:38:53.004Z,3.22
2018-04-28T08:43:56.370Z,3.35
2018-04-28T08:48:59.986Z,3.28
2018-04-28T08:54:03.714Z,3.15
2018-04-28T08:59:07.898Z,2.80
2018-04-28T09:04:11.153Z,1.98
2018-04-28T09:09:18.475Z,2.55
2018-04-28T09:14:22.379Z,2.50
2018-04-28T09:19:25.667Z,2.78
2018-04-28T09:24:28.967Z,1.80
2018-04-28T09:29:32.193Z,1.60
2018-04-28T09:34:35.790Z,1.90
2018-04-28T09:39:39.095Z,1.45
2018-04-28T09:44:42.315Z,1.50
2018-04-28T09:49:45.930Z,2.12
2018-04-28T09:54:49.577Z,1.60
2018-04-28T09:59:53.057Z,1.85
2018-04-28T10:04:56.351Z,1.73
2018-04-28T10:10:00.273Z,1.65
2018-04-28T10:15:03.523Z,1.67
2018-04-28T10:20:06.974Z,1.70
2018-04-28T10:25:10.748Z,1.80
2018-04-28T10:30:13.970Z,2.00
2018-04-28T10:35:17.321Z,1.70
2018-04-28T10:40:20.563Z,1.95
2018-04-28T10:45:23.798Z,1.70
2018-04-28T10:50:27.371Z,1.95
2018-04-28T10:55:30.867Z,2.00
2018-04-28T11:00:34.588Z,1.80
2018-04-28T11:05:38.275Z,1.60
2018-04-28T11:10:41.684Z,1.70
2018-04-28T11:15:45.080Z,1.85
2018-04-28T11:20:48.857Z,1.92
2018-04-28T11:25:52.141Z,1.90
2018-04-28T11:30:57.190Z,1.80
2018-04-28T11:36:00.490Z,1.67
2018-04-28T11:41:03.739Z,1.80
2018-04-28T11:46:08.480Z,1.62
2018-04-28T11:51:11.841Z,1.50
2018-04-28T11:56:15.288Z,1.80
2018-04-28T12:01:19.006Z,1.75
2018-04-28T12:06:22.597Z,1.60
2018-04-28T12:11:26.269Z,1.90
2018-04-28T12:16:29.608Z,1.85
2018-04-28T12:21:33.026Z,1.62
2018-04-28T12:26:36.364Z,1.58
2018-04-28T12:31:39.844Z,2.17
2018-04-28T12:36:43.152Z,1.75
2018-04-28T12:41:46.766Z,2.25
2018-04-28T12:46:50.179Z,2.45
2018-04-28T12:51:53.692Z,1.92
2018-04-28T12:56:57.447Z,2.10
2018-04-28T13:02:01.528Z,1.77
2018-04-28T13:07:05.712Z,1.65
2018-04-28T13:12:09.064Z,2.17
2018-04-28T13:17:12.347Z,2.05
2018-04-28T13:22:15.587Z,1.75
2018-04-28T13:27:19.213Z,1.58
2018-04-28T13:32:22.937Z,1.52
2018-04-28T13:37:26.178Z,1.48
2018-04-28T13:42:29.536Z,1.62
2018-04-28T13:47:33.348Z,1.95
2018-04-28T13:52:36.856Z,1.73
2018-04-28T13:57:40.138Z,2.20
2018-04-28T14:02:43.492Z,2.00
2018-04-28T14:07:46.743Z,2.25
2018-04-28T14:12:50.086Z,1.70
2018-04-28T14:17:53.378Z,1.67
2018-04-28T14:22:56.712Z,1.92
2018-04-28T14:28:00.435Z,1.98
2018-04-28T14:33:04.651Z,1.92
2018-04-28T14:38:07.884Z,2.08
2018-04-28T14:43:11.370Z,1.58
2018-04-28T14:48:14.602Z,1.98
2018-04-28T14:53:17.820Z,2.05
2018-04-28T14:58:21.169Z,1.60
2018-04-28T15:03:24.389Z,1.92
2018-04-28T15:08:28.382Z,1.98
2018-04-28T15:13:32.137Z,1.60
2018-04-28T15:18:35.380Z,2.10
2018-04-28T15:23:38.600Z,1.60
2018-04-28T15:28:41.832Z,2.05
2018-04-28T15:33:45.342Z,1.90
2018-04-28T15:38:49.392Z,1.83
2018-04-28T15:43:52.715Z,1.98
2018-04-28T15:48:56.349Z,2.00
2018-04-28T15:53:59.690Z,1.70
2018-04-28T15:59:03.032Z,1.58
2018-04-28T16:04:06.749Z,1.90
2018-04-28T16:09:10.005Z,1.60
2018-04-28T16:14:13.497Z,1.48
2018-04-28T16:19:16.778Z,1.80
2018-04-28T16:24:20.394Z,1.70
2018-04-28T16:29:24.690Z,1.73
2018-04-28T16:34:28.049Z,1.80
2018-04-28T16:39:31.304Z,1.83
2018-04-28T16:44:34.525Z,1.80
2018-04-28T16:49:42.592Z,1.85
2018-04-28T16:54:45.863Z,1.60
2018-04-28T16:59:49.492Z,2.08
2018-04-28T17:04:53.195Z,2.08
2018-04-28T17:09:56.447Z,1.83
2018-04-28T17:14:59.715Z,2.12
2018-04-28T17:20:03.342Z,2.10
2018-04-28T17:25:06.966Z,2.47
2018-04-28T17:30:10.214Z,1.92
2018-04-28T17:35:13.452Z,2.33
2018-04-28T17:40:17.076Z,2.00
2018-04-28T17:45:20.692Z,2.00
2018-04-28T17:50:24.307Z,2.17
2018-04-28T17:55:27.931Z,2.78
2018-04-28T18:00:31.555Z,2.05
2018-04-28T18:05:34.831Z,2.28
2018-04-28T18:10:38.472Z,2.40
2018-04-28T18:15:41.691Z,2.28
2018-04-28T18:20:44.915Z,2.70
2018-04-28T18:25:48.145Z,2.90
2018-04-28T18:30:51.353Z,2.60
2018-04-28T18:35:54.587Z,2.47
2018-04-28T18:40:58.276Z,2.60
2018-04-28T18:46:01.495Z,2.40
2018-04-28T18:51:04.730Z,2.65
2018-04-28T18:56:07.947Z,2.58
2018-04-28T19:01:11.172Z,3.10
2018-04-28T19:06:14.392Z,3.47
2018-04-28T19:11:17.628Z,2.90
2018-04-28T19:16:20.872Z,3.05
2018-04-28T19:21:24.101Z,3.22
2018-04-28T19:26:27.752Z,3.95
2018-04-28T19:31:31.380Z,3.22
2018-04-28T19:36:35.013Z,3.60
2018-04-28T19:41:38.299Z,3.10
2018-04-28T19:46:41.918Z,2.92
2018-04-28T19:51:45.620Z,2.70
2018-04-28T19:56:48.845Z,2.60
2018-04-28T20:01:52.089Z,2.92
2018-04-28T20:06:55.326Z,3.45
2018-04-28T20:11:58.558Z,3.95
2018-04-28T20:17:01.788Z,3.42
2018-04-28T20:22:16.827Z,3.15
2018-04-28T20:27:20.065Z,3.30
2018-04-28T20:32:23.662Z,3.15
2018-04-28T20:37:27.281Z,2.97
2018-04-28T20:42:30.892Z,2.37
2018-04-28T20:47:34.518Z,3.28
2018-04-28T20:52:38.154Z,2.90
2018-04-28T20:57:41.396Z,3.42
2018-04-28T21:02:44.664Z,2.60
2018-04-28T21:07:47.894Z,2.50
2018-04-28T21:12:51.118Z,3.10
2018-04-28T21:17:54.343Z,3.70
2018-04-28T21:22:57.972Z,2.97
2018-04-28T21:28:01.781Z,2.80
2018-04-28T21:33:05.418Z,3.40
2018-04-28T21:38:08.636Z,3.90
2018-04-28T21:43:12.603Z,3.40
2018-04-28T21:48:15.931Z,3.78
2018-04-28T21:53:19.606Z,4.12
2018-04-28T21:58:22.797Z,4.03
2018-04-28T22:03:26.053Z,4.00
2018-04-28T22:08:29.287Z,4.18
2018-04-28T22:13:32.704Z,4.10
2018-04-28T22:18:35.996Z,3.90
2018-04-28T22:23:39.693Z,3.90
2018-04-28T22:28:42.920Z,3.72
2018-04-28T22:33:46.525Z,3.00
2018-04-28T22:38:50.142Z,3.20
2018-04-28T22:43:54.832Z,3.53
2018-04-28T22:48:58.049Z,2.50
2018-04-28T22:54:01.278Z,2.60
2018-04-28T22:59:04.496Z,2.70
2018-04-28T23:04:08.117Z,2.80
2018-04-28T23:09:12.127Z,2.78
2018-04-28T23:14:15.353Z,3.12
2018-04-28T23:19:18.984Z,3.35
2018-04-28T23:24:22.201Z,3.55
2018-04-28T23:29:25.430Z,3.42
2018-04-28T23:34:28.646Z,3.35
2018-04-28T23:39:31.956Z,3.42
2018-04-28T23:44:35.187Z,3.22
2018-04-28T23:49:38.405Z,4.05
2018-04-28T23:54:42.015Z,3.53
2018-04-28T23:59:45.635Z,3.53
